createdAt,value
2023-02-06T00:00:43.226Z,69.95
2023-02-06T00:03:45.790Z,69.88
2023-02-06T00:06:47.245Z,69.79
2023-02-06T00:09:49.749Z,69.88
2023-02-06T00:12:51.797Z,69.80
2023-02-06T00:15:54.571Z,69.28
2023-02-06T00:18:58.781Z,68.93
2023-02-06T00:22:00.374Z,68.90
2023-02-06T00:25:03.446Z,69.76
2023-02-06T00:28:05.668Z,69.62
2023-02-06T00:31:09.288Z,70.29
2023-02-06T00:34:10.842Z,70.53
2023-02-06T00:37:13.439Z,69.51
2023-02-06T00:40:14.757Z,68.89
2023-02-06T00:43:18.460Z,69.83
2023-02-06T00:46:20.159Z,70.32
2023-02-06T00:49:22.708Z,69.41
2023-02-06T00:52:25.237Z,70.04
2023-02-06T00:55:27.812Z,69.13
2023-02-06T00:58:29.878Z,69.97
2023-02-06T01:01:32.579Z,69.93
2023-02-06T01:04:33.855Z,69.64
2023-02-06T01:07:39.197Z,69.90
2023-02-06T01:10:42.244Z,70.23
2023-02-06T01:13:44.154Z,70.08
2023-02-06T01:16:46.707Z,70.08
2023-02-06T01:19:49.280Z,70.02
2023-02-06T01:22:52.437Z,70.77
2023-02-06T01:25:53.723Z,71.08
2023-02-06T01:28:57.453Z,70.52
2023-02-06T01:32:00.002Z,70.54
2023-02-06T01:35:01.362Z,70.29
2023-02-06T01:38:03.932Z,70.38
2023-02-06T01:41:06.858Z,70.02
2023-02-06T01:44:15.398Z,69.94
2023-02-06T01:47:18.995Z,70.70
2023-02-06T01:50:20.304Z,70.59
2023-02-06T01:53:24.073Z,71.25
2023-02-06T01:56:30.659Z,70.90
2023-02-06T01:59:33.811Z,71.03
2023-02-06T02:02:39.972Z,70.68
2023-02-06T02:05:43.311Z,70.45
2023-02-06T02:12:08.250Z,70.93
2023-02-06T02:15:11.590Z,70.32
2023-02-06T02:18:36.285Z,70.09
2023-02-06T02:22:02.618Z,70.59
2023-02-06T02:25:27.803Z,70.72
2023-02-06T02:29:05.412Z,70.63
2023-02-06T02:32:37.458Z,70.11
2023-02-06T02:35:51.764Z,70.95
2023-02-06T02:39:03.039Z,70.76
2023-02-06T02:42:12.765Z,70.64
2023-02-06T02:45:20.678Z,70.84
2023-02-06T02:48:24.851Z,70.51
2023-02-06T02:51:28.131Z,71.37
2023-02-06T02:54:29.888Z,71.11
2023-02-06T02:57:33.224Z,70.92
2023-02-06T03:00:40.838Z,70.71
2023-02-06T03:03:45.652Z,70.90
2023-02-06T03:07:04.400Z,70.84
2023-02-06T03:10:12.835Z,71.17
2023-02-06T03:13:23.641Z,71.24
2023-02-06T03:16:32.888Z,71.18
2023-02-06T03:19:40.951Z,71.28
2023-02-06T03:22:47.008Z,70.84
2023-02-06T03:25:53.914Z,70.89
2023-02-06T03:29:00.850Z,71.41
2023-02-06T03:32:08.160Z,70.91
2023-02-06T03:35:17.175Z,71.11
2023-02-06T03:38:19.167Z,71.19
2023-02-06T03:41:25.952Z,71.31
2023-02-06T03:44:33.591Z,70.85
2023-02-06T03:47:39.164Z,71.55
2023-02-06T03:50:43.894Z,71.08
2023-02-06T03:53:50.684Z,71.11
2023-02-06T03:56:55.624Z,71.18
2023-02-06T03:59:57.042Z,71.66
2023-02-06T04:02:59.637Z,71.38
2023-02-06T04:06:02.354Z,71.39
2023-02-06T04:09:04.481Z,71.48
2023-02-06T04:12:07.592Z,71.93
2023-02-06T04:15:09.584Z,71.86
2023-02-06T04:18:12.080Z,71.32
2023-02-06T04:21:13.355Z,71.23
2023-02-06T04:24:16.653Z,70.60
2023-02-06T04:27:18.090Z,71.04
2023-02-06T04:30:20.726Z,71.92
2023-02-06T04:33:22.018Z,71.11
2023-02-06T04:36:24.671Z,71.73
2023-02-06T04:39:28.546Z,71.79
2023-02-06T04:42:31.138Z,71.87
2023-02-06T04:45:32.457Z,71.78
2023-02-06T04:48:33.923Z,72.05
2023-02-06T04:51:37.046Z,72.83
2023-02-06T04:54:40.249Z,72.99
2023-02-06T04:57:42.976Z,72.69
2023-02-06T05:00:44.267Z,71.99
2023-02-06T05:03:46.937Z,73.44
2023-02-06T05:06:48.270Z,72.87
2023-02-06T05:09:50.265Z,73.65
2023-02-06T05:12:52.866Z,73.79
2023-02-06T05:15:54.244Z,73.00
2023-02-06T05:18:57.943Z,74.27
2023-02-06T05:21:59.276Z,73.68
2023-02-06T05:25:02.675Z,73.74
2023-02-06T05:28:06.619Z,73.78
2023-02-06T05:31:09.481Z,73.09
2023-02-06T05:34:10.795Z,74.08
2023-02-06T05:37:13.761Z,73.99
2023-02-06T05:40:17.417Z,73.92
2023-02-06T05:43:20.022Z,74.47
2023-02-06T05:46:21.358Z,74.81
2023-02-06T05:49:23.961Z,74.19
2023-02-06T05:52:25.248Z,73.96
2023-02-06T06:02:10.699Z,74.45
2023-02-06T06:05:12.026Z,74.60
2023-02-06T06:08:15.521Z,74.88
2023-02-06T06:11:17.481Z,75.23
2023-02-06T06:14:18.865Z,74.86
2023-02-06T06:17:20.962Z,74.10
2023-02-06T06:20:23.992Z,75.76
2023-02-06T06:23:25.292Z,75.32
2023-02-06T06:26:27.539Z,75.17
2023-02-06T06:29:29.194Z,75.59
2023-02-06T06:32:30.482Z,75.07
2023-02-06T06:35:32.198Z,75.50
2023-02-06T06:38:34.046Z,75.33
2023-02-06T06:41:45.643Z,75.62
2023-02-06T06:44:48.192Z,75.65
2023-02-06T06:47:49.492Z,75.23
2023-02-06T06:50:52.028Z,74.53
2023-02-06T06:53:53.296Z,74.56
2023-02-06T06:56:56.513Z,74.73
2023-02-06T06:59:58.164Z,74.45
2023-02-06T07:02:59.498Z,74.55
2023-02-06T07:06:00.896Z,74.79
2023-02-06T07:09:02.197Z,74.30
2023-02-06T07:12:05.146Z,74.42
2023-02-06T07:15:07.276Z,74.61
2023-02-06T07:18:11.378Z,74.50
2023-02-06T07:21:15.091Z,74.50
2023-02-06T07:24:16.377Z,74.75
2023-02-06T07:27:18.900Z,74.09
2023-02-06T07:30:21.843Z,73.73
2023-02-06T07:33:23.158Z,73.89
2023-02-06T07:36:25.691Z,74.05
2023-02-06T07:39:27.244Z,74.05
2023-02-06T07:42:29.207Z,74.21
2023-02-06T07:45:31.077Z,74.35
2023-02-06T07:48:32.638Z,74.13
2023-02-06T07:51:35.705Z,73.61
2023-02-06T07:54:37.021Z,73.78
2023-02-06T07:57:40.221Z,73.91
2023-02-06T08:00:41.650Z,74.65
2023-02-06T08:03:42.985Z,73.30
2023-02-06T08:06:46.075Z,75.09
2023-02-06T08:09:47.648Z,75.25
2023-02-06T08:12:50.801Z,75.25
2023-02-06T08:15:52.321Z,75.51
2023-02-06T08:18:54.857Z,75.42
2023-02-06T08:21:56.311Z,74.59
2023-02-06T08:24:57.912Z,75.28
2023-02-06T08:28:00.181Z,74.98
2023-02-06T08:31:08.498Z,75.73
2023-02-06T08:34:13.840Z,76.08
2023-02-06T08:37:15.359Z,74.79
2023-02-06T08:40:17.270Z,75.21
2023-02-06T08:43:19.245Z,74.50
2023-02-06T08:46:22.332Z,74.28
2023-02-06T08:49:26.115Z,74.96
2023-02-06T08:52:28.581Z,75.67
2023-02-06T08:55:30.113Z,74.81
2023-02-06T08:58:33.985Z,75.62
2023-02-06T09:01:36.629Z,75.21
2023-02-06T09:04:39.552Z,76.03
2023-02-06T09:07:41.134Z,75.48
2023-02-06T09:10:43.805Z,75.17
2023-02-06T09:13:49.133Z,75.29
2023-02-06T09:16:51.974Z,75.36
2023-02-06T09:19:53.272Z,74.88
2023-02-06T09:22:54.522Z,75.55
2023-02-06T09:25:55.872Z,75.50
2023-02-06T09:29:00.788Z,75.03
2023-02-06T09:32:02.107Z,75.62
2023-02-06T09:35:05.178Z,75.42
2023-02-06T09:38:06.466Z,75.23
2023-02-06T09:41:17.034Z,75.50
2023-02-06T09:44:23.635Z,75.39
2023-02-06T09:47:28.428Z,74.28
2023-02-06T09:50:40.645Z,74.65
2023-02-06T09:53:54.410Z,74.32
2023-02-06T09:57:06.358Z,74.53
2023-02-06T10:00:17.938Z,74.40
2023-02-06T10:03:48.588Z,75.01
2023-02-06T10:06:57.200Z,75.97
2023-02-06T10:10:03.784Z,74.79
2023-02-06T10:13:13.166Z,74.04
2023-02-06T10:16:32.291Z,73.90
2023-02-06T10:19:42.911Z,74.43
2023-02-06T10:22:51.797Z,74.07
2023-02-06T10:26:03.501Z,73.13
2023-02-06T10:29:06.205Z,74.62
2023-02-06T10:32:21.593Z,74.77
2023-02-06T10:35:32.515Z,75.57
2023-02-06T10:38:51.992Z,74.16
2023-02-06T10:42:02.200Z,72.47
2023-02-06T10:45:57.326Z,73.08
2023-02-06T10:49:04.484Z,71.32
2023-02-06T10:52:17.844Z,72.06
2023-02-06T10:55:22.985Z,72.16
2023-02-06T10:58:28.355Z,71.79
2023-02-06T11:01:35.251Z,71.68
2023-02-06T11:04:39.923Z,72.22
2023-02-06T11:07:44.655Z,71.97
2023-02-06T11:10:46.236Z,70.52
2023-02-06T11:13:50.312Z,70.56
2023-02-06T11:16:53.688Z,69.64
2023-02-06T11:20:04.455Z,69.93
2023-02-06T11:23:15.719Z,70.19
2023-02-06T11:26:20.222Z,71.58
2023-02-06T11:29:24.946Z,70.61
2023-02-06T11:32:35.374Z,71.10
2023-02-06T11:35:40.657Z,70.47
2023-02-06T11:38:55.408Z,70.80
2023-02-06T11:41:59.297Z,71.21
2023-02-06T11:45:18.119Z,71.27
2023-02-06T11:48:38.657Z,71.17
2023-02-06T11:51:52.004Z,71.64
2023-02-06T11:54:55.239Z,69.90
2023-02-06T11:58:07.987Z,70.66
2023-02-06T12:01:18.331Z,69.46
2023-02-06T12:04:25.391Z,70.01
2023-02-06T12:07:32.912Z,69.55
2023-02-06T12:10:40.171Z,70.37
2023-02-06T12:13:47.221Z,70.08
2023-02-06T12:16:50.452Z,71.51
2023-02-06T12:20:09.274Z,71.50
2023-02-06T12:23:18.793Z,68.51
2023-02-06T12:26:24.594Z,71.51
2023-02-06T12:29:29.947Z,69.86
2023-02-06T12:32:34.325Z,70.92
2023-02-06T12:35:45.086Z,70.13
2023-02-06T12:38:52.535Z,71.14
2023-02-06T12:42:10.907Z,70.68
2023-02-06T12:45:28.218Z,70.60
2023-02-06T12:48:38.151Z,69.45
2023-02-06T12:51:50.762Z,70.86
2023-02-06T12:55:00.010Z,70.79
2023-02-06T12:58:02.481Z,70.63
2023-02-06T13:01:33.033Z,69.68
2023-02-06T13:04:38.053Z,70.59
2023-02-06T13:07:49.328Z,70.87
2023-02-06T13:11:02.127Z,70.32
2023-02-06T13:14:06.867Z,71.21
2023-02-06T13:17:12.098Z,71.42
2023-02-06T13:20:16.122Z,70.87
2023-02-06T13:23:22.884Z,70.22
2023-02-06T13:26:57.867Z,71.32
2023-02-06T13:30:37.136Z,70.94
2023-02-06T13:33:41.691Z,71.47
2023-02-06T13:36:49.786Z,71.10
2023-02-06T13:40:18.389Z,72.99
2023-02-06T13:43:26.805Z,70.94
2023-02-06T13:46:51.607Z,71.16
2023-02-06T13:50:28.698Z,71.33
2023-02-06T13:53:46.269Z,69.89
2023-02-06T13:57:11.323Z,70.52
2023-02-06T14:00:17.346Z,70.22
2023-02-06T14:03:25.081Z,70.59
2023-02-06T14:06:46.896Z,70.46
2023-02-06T14:10:20.617Z,70.08
2023-02-06T14:13:45.660Z,69.49
2023-02-06T14:16:55.315Z,69.80
2023-02-06T14:20:08.417Z,70.39
2023-02-06T14:23:20.018Z,70.91
2023-02-06T14:26:32.135Z,71.66
2023-02-06T14:29:44.809Z,71.16
2023-02-06T14:32:57.800Z,68.61
2023-02-06T14:36:14.438Z,69.48
2023-02-06T14:39:40.831Z,70.89
2023-02-06T14:42:44.973Z,70.24
2023-02-06T14:46:05.532Z,71.12
2023-02-06T14:49:16.054Z,69.22
2023-02-06T14:52:21.603Z,70.28
2023-02-06T14:55:34.576Z,70.36
2023-02-06T14:58:36.098Z,70.29
2023-02-06T15:01:37.563Z,68.62
2023-02-06T15:04:46.836Z,70.39
2023-02-06T15:07:57.151Z,69.36
2023-02-06T15:11:01.454Z,70.13
2023-02-06T15:14:05.787Z,69.79
2023-02-06T15:17:08.150Z,70.52
2023-02-06T15:20:25.732Z,69.54
2023-02-06T15:23:43.346Z,70.44
2023-02-06T15:26:53.597Z,70.63
2023-02-06T15:29:55.671Z,70.36
2023-02-06T15:32:58.160Z,70.21
2023-02-06T15:36:02.578Z,71.23
2023-02-06T15:39:06.993Z,71.47
2023-02-06T15:42:10.279Z,70.68
2023-02-06T15:45:19.544Z,71.24
2023-02-06T15:48:25.262Z,71.70
2023-02-06T15:51:29.371Z,70.74
2023-02-06T15:54:33.775Z,72.20
2023-02-06T15:57:40.305Z,72.39
2023-02-06T16:00:43.199Z,72.48
2023-02-06T16:03:45.333Z,72.35
2023-02-06T16:06:58.486Z,72.22
2023-02-06T16:10:06.244Z,72.36
2023-02-06T16:13:12.206Z,72.23
2023-02-06T16:16:20.036Z,72.16
2023-02-06T16:19:38.189Z,71.97
2023-02-06T16:22:39.598Z,72.34
2023-02-06T16:25:41.828Z,72.63
2023-02-06T16:28:54.547Z,72.39
2023-02-06T16:31:59.562Z,71.52
2023-02-06T16:38:21.782Z,72.38
2023-02-06T16:41:29.836Z,72.46
2023-02-06T16:44:44.081Z,72.05
2023-02-06T16:47:47.803Z,72.56
2023-02-06T16:50:49.241Z,72.90
2023-02-06T16:53:52.662Z,72.62
2023-02-06T16:56:56.985Z,72.52
2023-02-06T16:59:58.539Z,73.09
2023-02-06T17:03:00.227Z,72.89
2023-02-06T17:06:02.659Z,72.35
2023-02-06T17:09:08.324Z,72.55
2023-02-06T17:12:13.119Z,72.57
2023-02-06T17:15:15.560Z,72.82
2023-02-06T17:18:18.210Z,72.84
2023-02-06T17:21:28.954Z,72.72
2023-02-06T17:24:30.236Z,73.38
2023-02-06T17:27:32.438Z,73.07
2023-02-06T17:30:35.414Z,73.22
2023-02-06T17:33:38.178Z,73.35
2023-02-06T17:36:41.158Z,73.12
2023-02-06T17:39:43.527Z,73.28
2023-02-06T17:42:46.670Z,73.26
2023-02-06T17:45:49.079Z,72.83
2023-02-06T17:48:51.448Z,73.03
2023-02-06T17:51:53.767Z,73.30
2023-02-06T17:54:55.121Z,73.64
2023-02-06T17:57:58.149Z,73.14
2023-02-06T18:01:00.653Z,72.95
2023-02-06T18:04:03.378Z,73.07
2023-02-06T18:07:05.794Z,73.03
2023-02-06T18:10:07.980Z,73.71
2023-02-06T18:13:10.992Z,73.59
2023-02-06T18:16:14.554Z,73.47
2023-02-06T18:19:19.330Z,73.48
2023-02-06T18:22:22.679Z,72.87
2023-02-06T18:25:25.041Z,72.82
2023-02-06T18:28:28.168Z,72.81
2023-02-06T18:31:32.493Z,72.75
2023-02-06T18:34:35.483Z,72.65
2023-02-06T18:37:37.990Z,72.70
2023-02-06T18:40:42.103Z,72.95
2023-02-06T18:43:45.115Z,73.12
2023-02-06T18:46:46.490Z,73.26
2023-02-06T18:49:47.973Z,72.78
2023-02-06T18:52:50.268Z,73.14
2023-02-06T18:55:58.122Z,73.44
2023-02-06T18:59:01.332Z,73.86
2023-02-06T19:02:04.102Z,73.94
2023-02-06T19:05:07.151Z,72.89
2023-02-06T19:08:08.432Z,72.79
2023-02-06T19:11:10.281Z,72.31
2023-02-06T19:14:16.086Z,73.10
2023-02-06T19:17:17.371Z,74.02
2023-02-06T19:23:39.839Z,72.99
2023-02-06T19:26:42.844Z,73.13
2023-02-06T19:29:45.058Z,72.91
2023-02-06T19:32:49.175Z,72.25
2023-02-06T19:35:51.468Z,71.70
2023-02-06T19:38:56.052Z,72.31
2023-02-06T19:41:57.325Z,72.52
2023-02-06T19:45:00.594Z,72.11
2023-02-06T19:48:01.931Z,72.63
2023-02-06T19:54:25.595Z,71.65
2023-02-06T19:57:28.264Z,71.91
2023-02-06T20:00:31.485Z,72.78
2023-02-06T20:03:33.158Z,72.75
2023-02-06T20:06:38.531Z,72.84
2023-02-06T20:09:41.991Z,72.86
2023-02-06T20:12:44.783Z,72.68
2023-02-06T20:19:09.941Z,72.75
2023-02-06T20:22:12.582Z,73.02
2023-02-06T20:25:14.045Z,72.29
2023-02-06T20:28:16.760Z,72.16
2023-02-06T20:31:19.960Z,72.38
2023-02-06T20:34:21.764Z,73.12
2023-02-06T20:37:23.740Z,72.51
2023-02-06T20:40:25.040Z,72.49
2023-02-06T20:43:26.488Z,71.50
2023-02-06T20:46:31.817Z,72.23
2023-02-06T20:49:33.355Z,71.88
2023-02-06T20:52:36.575Z,71.71
2023-02-06T20:55:40.897Z,71.86
2023-02-06T20:58:43.119Z,72.29
2023-02-06T21:01:45.249Z,72.59
2023-02-06T21:04:47.809Z,71.56
2023-02-06T21:07:50.359Z,71.54
2023-02-06T21:10:52.397Z,72.35
2023-02-06T21:13:53.726Z,71.89
2023-02-06T21:16:56.121Z,71.28
2023-02-06T21:19:57.521Z,71.66
2023-02-06T21:23:00.043Z,71.66
2023-02-06T21:26:01.510Z,71.19
2023-02-06T21:29:03.764Z,71.42
2023-02-06T21:32:13.726Z,70.90
2023-02-06T21:35:16.915Z,71.32
2023-02-06T21:38:19.955Z,71.74
2023-02-06T21:41:21.296Z,71.73
2023-02-06T21:44:23.833Z,72.46
2023-02-06T21:47:25.845Z,72.47
2023-02-06T21:50:28.534Z,72.03
2023-02-06T21:53:31.053Z,71.73
2023-02-06T21:56:32.372Z,71.81
2023-02-06T21:59:34.905Z,71.45
2023-02-06T22:02:37.687Z,71.42
2023-02-06T22:05:40.597Z,71.58
2023-02-06T22:08:43.629Z,71.78
2023-02-06T22:11:46.560Z,71.61
2023-02-06T22:14:47.878Z,71.92
2023-02-06T22:17:49.833Z,71.04
2023-02-06T22:21:03.598Z,70.69
2023-02-06T22:24:08.126Z,71.16
2023-02-06T22:27:09.674Z,71.11
2023-02-06T22:30:13.283Z,70.96
2023-02-06T22:33:15.269Z,70.61
2023-02-06T22:36:20.202Z,70.65
2023-02-06T22:39:22.760Z,71.14
2023-02-06T22:42:24.081Z,70.76
2023-02-06T22:45:26.648Z,71.76
2023-02-06T22:48:28.758Z,71.66
2023-02-06T22:51:31.353Z,71.58
2023-02-06T22:54:32.617Z,71.02
2023-02-06T22:57:37.642Z,71.60
2023-02-06T23:04:02.895Z,71.19
2023-02-06T23:07:05.906Z,70.40
2023-02-06T23:10:08.772Z,70.25
2023-02-06T23:13:10.066Z,70.81
2023-02-06T23:16:12.996Z,70.10
2023-02-06T23:19:15.284Z,71.11
2023-02-06T23:22:24.939Z,70.72
2023-02-06T23:25:27.589Z,70.57
2023-02-06T23:28:29.167Z,70.77
2023-02-06T23:31:32.401Z,70.36
2023-02-06T23:34:34.369Z,71.00
2023-02-06T23:37:36.939Z,71.00
2023-02-06T23:40:39.682Z,71.40
2023-02-06T23:43:42.213Z,70.79
2023-02-06T23:46:44.761Z,70.05
2023-02-06T23:49:46.722Z,70.44
2023-02-06T23:52:49.545Z,70.12
2023-02-06T23:55:52.277Z,71.23
2023-02-06T23:58:54.619Z,70.71
